QFA36 YPAD-YMML
Flight info
| Callsign | QFA36 |
|---|---|
| Flight time | N/A |
| Altitude | 39000 |
| Route | AD V255 BENDO Y12 ARBEY H119 ML |
| Aircraft | A339/H-SADE1E2E3GHIJ3J5M1P2RWXY/LB2D1 |
Departure
| Time | 2025-09-05 07:23 |
|---|---|
| Airport | Adelaide International Airport (YPAD) |
Arrival
| Time | N/A |
|---|---|
| Airport | Melbourne Airport (YMML) |
| Time | Latitude | Longitude | Altitude | Speed | Heading |
|---|---|---|---|---|---|
| 2025-09-05 06:54 | -34.93886 | 138.53897 | 32 ft | 0 kts | 315° |
| 2025-09-05 07:11 | -34.93901 | 138.53916 | 32 ft | 3 kts | 320° |
| 2025-09-05 07:12 | -34.93947 | 138.53958 | 31 ft | 1 kts | 320° |
| 2025-09-05 07:13 | -34.93950 | 138.53962 | 30 ft | 0 kts | 320° |
| 2025-09-05 07:15 | -34.93973 | 138.53908 | 32 ft | 5 kts | 234° |
| 2025-09-05 07:16 | -34.94105 | 138.53764 | 32 ft | 12 kts | 227° |
| 2025-09-05 07:17 | -34.94240 | 138.53642 | 32 ft | 14 kts | 186° |
| 2025-09-05 07:17 | -34.94416 | 138.53483 | 32 ft | 18 kts | 230° |
| 2025-09-05 07:17 | -34.94500 | 138.53355 | 32 ft | 20 kts | 241° |
| 2025-09-05 07:18 | -34.94603 | 138.53115 | 31 ft | 24 kts | 201° |
| 2025-09-05 07:18 | -34.94921 | 138.52985 | 31 ft | 25 kts | 186° |
| 2025-09-05 07:19 | -34.95311 | 138.52518 | 32 ft | 50 kts | 229° |
| 2025-09-05 07:19 | -34.95737 | 138.51898 | 32 ft | 43 kts | 233° |
| 2025-09-05 07:20 | -34.95858 | 138.51650 | 32 ft | 10 kts | 63° |
| 2025-09-05 07:21 | -34.95780 | 138.51824 | 32 ft | 12 kts | 53° |
| 2025-09-05 07:21 | -34.95753 | 138.51866 | 32 ft | 6 kts | 50° |
| 2025-09-05 07:21 | -34.95535 | 138.52184 | 32 ft | 95 kts | 50° |
| 2025-09-05 07:22 | -34.94233 | 138.54026 | 1057 ft | 156 kts | 51° |
| 2025-09-05 07:22 | -34.92786 | 138.56179 | 2736 ft | 181 kts | 49° |
| 2025-09-05 07:23 | -34.90977 | 138.58854 | 3758 ft | 227 kts | 47° |
| 2025-09-05 07:24 | -34.89045 | 138.64503 | 5661 ft | 271 kts | 96° |
| 2025-09-05 07:24 | -34.91090 | 138.68502 | 7176 ft | 290 kts | 128° |
| 2025-09-05 07:25 | -34.93756 | 138.72275 | 8698 ft | 297 kts | 129° |
| 2025-09-05 07:25 | -34.95101 | 138.74225 | 9481 ft | 302 kts | 129° |
| 2025-09-05 07:25 | -34.97839 | 138.78259 | 10624 ft | 324 kts | 129° |
| 2025-09-05 07:26 | -35.00881 | 138.82759 | 11247 ft | 358 kts | 130° |
| 2025-09-05 07:26 | -35.04090 | 138.87517 | 12608 ft | 365 kts | 130° |
| 2025-09-05 07:27 | -35.06833 | 138.92793 | 13963 ft | 373 kts | 113° |
| 2025-09-05 07:27 | -35.08631 | 138.98802 | 15115 ft | 381 kts | 110° |
| 2025-09-05 07:28 | -35.11425 | 139.08038 | 16804 ft | 393 kts | 111° |
| 2025-09-05 07:28 | -35.12367 | 139.11148 | 17340 ft | 398 kts | 111° |
| 2025-09-05 07:29 | -35.14305 | 139.17560 | 18415 ft | 407 kts | 111° |
| 2025-09-05 07:30 | -35.17267 | 139.27399 | 20042 ft | 415 kts | 112° |
| 2025-09-05 07:30 | -35.18265 | 139.30720 | 20591 ft | 418 kts | 112° |
| 2025-09-05 07:30 | -35.20278 | 139.37432 | 21690 ft | 423 kts | 112° |
| 2025-09-05 07:31 | -35.22312 | 139.44232 | 22802 ft | 429 kts | 112° |
| 2025-09-05 07:31 | -35.24022 | 139.49960 | 23733 ft | 434 kts | 111° |
| 2025-09-05 07:32 | -35.29027 | 139.63605 | 25480 ft | 447 kts | 117° |
| 2025-09-05 07:34 | -35.39600 | 139.92135 | 28891 ft | 472 kts | 118° |
| 2025-09-05 07:36 | -35.50648 | 140.22240 | 31748 ft | 498 kts | 118° |
| 2025-09-05 07:38 | -35.62229 | 140.54114 | 33750 ft | 521 kts | 118° |
| 2025-09-05 07:41 | -35.75452 | 140.90915 | 35557 ft | 524 kts | 118° |
| 2025-09-05 07:42 | -35.85712 | 141.19768 | 36879 ft | 526 kts | 118° |
| 2025-09-05 07:45 | -35.98854 | 141.57120 | 38524 ft | 528 kts | 117° |
| 2025-09-05 07:46 | -36.08996 | 141.86260 | 39333 ft | 527 kts | 117° |
| 2025-09-05 07:49 | -36.21909 | 142.23761 | 39343 ft | 526 kts | 117° |